sensor_id;sensor_type;location;lat;lon;timestamp;P1;durP1;ratioP1;P2;durP2;ratioP2
31298;SDS011;17927;52.350;13.402;2022-12-11T00:00:04;20.15;;;11.23;;
31298;SDS011;17927;52.350;13.402;2022-12-11T00:02:30;21.95;;;12.57;;
31298;SDS011;17927;52.350;13.402;2022-12-11T00:04:55;16.83;;;11.55;;
31298;SDS011;17927;52.350;13.402;2022-12-11T00:07:21;16.23;;;12.07;;
31298;SDS011;17927;52.350;13.402;2022-12-11T00:09:46;18.05;;;11.98;;
31298;SDS011;17927;52.350;13.402;2022-12-11T00:12:11;22.75;;;14.18;;
31298;SDS011;17927;52.350;13.402;2022-12-11T00:14:36;23.02;;;12.80;;
31298;SDS011;17927;52.350;13.402;2022-12-11T00:17:02;21.50;;;13.23;;
31298;SDS011;17927;52.350;13.402;2022-12-11T00:19:27;18.75;;;12.55;;
31298;SDS011;17927;52.350;13.402;2022-12-11T00:21:52;18.25;;;12.18;;
31298;SDS011;17927;52.350;13.402;2022-12-11T00:24:18;20.25;;;13.30;;
31298;SDS011;17927;52.350;13.402;2022-12-11T00:26:43;17.65;;;12.38;;
31298;SDS011;17927;52.350;13.402;2022-12-11T00:29:09;19.67;;;12.45;;
31298;SDS011;17927;52.350;13.402;2022-12-11T00:31:38;17.60;;;11.45;;
31298;SDS011;17927;52.350;13.402;2022-12-11T00:34:03;18.15;;;11.57;;
31298;SDS011;17927;52.350;13.402;2022-12-11T00:36:28;20.35;;;12.63;;
31298;SDS011;17927;52.350;13.402;2022-12-11T00:38:54;19.65;;;12.38;;
31298;SDS011;17927;52.350;13.402;2022-12-11T00:41:19;19.98;;;12.20;;
31298;SDS011;17927;52.350;13.402;2022-12-11T00:43:45;18.20;;;11.55;;
31298;SDS011;17927;52.350;13.402;2022-12-11T00:46:11;18.45;;;12.68;;
31298;SDS011;17927;52.350;13.402;2022-12-11T00:48:37;16.35;;;11.90;;
31298;SDS011;17927;52.350;13.402;2022-12-11T00:51:03;18.83;;;12.38;;
31298;SDS011;17927;52.350;13.402;2022-12-11T00:53:28;16.95;;;11.98;;
31298;SDS011;17927;52.350;13.402;2022-12-11T00:55:53;18.13;;;12.73;;
31298;SDS011;17927;52.350;13.402;2022-12-11T00:58:19;18.90;;;12.05;;
31298;SDS011;17927;52.350;13.402;2022-12-11T01:00:44;20.92;;;11.65;;
31298;SDS011;17927;52.350;13.402;2022-12-11T01:03:10;17.65;;;12.50;;
31298;SDS011;17927;52.350;13.402;2022-12-11T01:05:38;19.58;;;12.18;;
31298;SDS011;17927;52.350;13.402;2022-12-11T01:08:03;16.75;;;11.85;;
31298;SDS011;17927;52.350;13.402;2022-12-11T01:10:28;22.05;;;12.73;;
31298;SDS011;17927;52.350;13.402;2022-12-11T01:12:59;18.25;;;12.55;;
31298;SDS011;17927;52.350;13.402;2022-12-11T01:15:28;19.50;;;12.27;;
31298;SDS011;17927;52.350;13.402;2022-12-11T01:17:55;18.83;;;13.10;;
31298;SDS011;17927;52.350;13.402;2022-12-11T01:20:21;18.23;;;12.20;;
31298;SDS011;17927;52.350;13.402;2022-12-11T01:22:50;16.67;;;11.52;;
31298;SDS011;17927;52.350;13.402;2022-12-11T01:25:20;21.10;;;12.68;;
31298;SDS011;17927;52.350;13.402;2022-12-11T01:27:46;21.88;;;13.95;;
31298;SDS011;17927;52.350;13.402;2022-12-11T01:30:15;16.35;;;11.35;;
31298;SDS011;17927;52.350;13.402;2022-12-11T01:32:40;17.70;;;11.32;;
31298;SDS011;17927;52.350;13.402;2022-12-11T01:35:06;18.95;;;12.25;;
31298;SDS011;17927;52.350;13.402;2022-12-11T01:37:32;17.85;;;11.98;;
31298;SDS011;17927;52.350;13.402;2022-12-11T01:39:58;23.10;;;13.60;;
31298;SDS011;17927;52.350;13.402;2022-12-11T01:42:25;19.13;;;12.05;;
31298;SDS011;17927;52.350;13.402;2022-12-11T01:47:48;16.05;;;11.80;;
31298;SDS011;17927;52.350;13.402;2022-12-11T01:50:16;19.50;;;12.07;;
31298;SDS011;17927;52.350;13.402;2022-12-11T01:52:42;20.63;;;12.38;;
31298;SDS011;17927;52.350;13.402;2022-12-11T01:55:08;17.50;;;12.00;;
31298;SDS011;17927;52.350;13.402;2022-12-11T01:57:35;22.60;;;12.88;;
31298;SDS011;17927;52.350;13.402;2022-12-11T02:00:03;21.65;;;13.93;;
31298;SDS011;17927;52.350;13.402;2022-12-11T02:02:29;22.90;;;13.02;;
31298;SDS011;17927;52.350;13.402;2022-12-11T02:04:57;20.30;;;12.27;;
31298;SDS011;17927;52.350;13.402;2022-12-11T02:07:23;20.88;;;13.38;;
31298;SDS011;17927;52.350;13.402;2022-12-11T02:09:48;20.80;;;13.15;;
31298;SDS011;17927;52.350;13.402;2022-12-11T02:15:25;18.63;;;12.13;;
31298;SDS011;17927;52.350;13.402;2022-12-11T02:29:04;22.48;;;13.65;;
31298;SDS011;17927;52.350;13.402;2022-12-11T02:31:37;24.88;;;13.88;;
31298;SDS011;17927;52.350;13.402;2022-12-11T02:34:54;22.20;;;13.48;;
31298;SDS011;17927;52.350;13.402;2022-12-11T02:36:56;20.10;;;12.52;;
31298;SDS011;17927;52.350;13.402;2022-12-11T02:39:25;19.30;;;13.52;;
31298;SDS011;17927;52.350;13.402;2022-12-11T02:41:52;20.38;;;13.23;;
31298;SDS011;17927;52.350;13.402;2022-12-11T02:44:21;23.00;;;13.65;;
31298;SDS011;17927;52.350;13.402;2022-12-11T02:46:49;23.42;;;13.38;;
31298;SDS011;17927;52.350;13.402;2022-12-11T02:49:16;21.42;;;13.95;;
31298;SDS011;17927;52.350;13.402;2022-12-11T02:51:43;24.17;;;14.05;;
31298;SDS011;17927;52.350;13.402;2022-12-11T02:54:23;20.45;;;13.48;;
31298;SDS011;17927;52.350;13.402;2022-12-11T02:57:13;19.55;;;13.15;;
31298;SDS011;17927;52.350;13.402;2022-12-11T02:59:41;23.58;;;14.73;;
31298;SDS011;17927;52.350;13.402;2022-12-11T03:02:08;21.10;;;13.18;;
31298;SDS011;17927;52.350;13.402;2022-12-11T03:04:36;22.67;;;14.05;;
31298;SDS011;17927;52.350;13.402;2022-12-11T03:07:03;25.90;;;14.35;;
31298;SDS011;17927;52.350;13.402;2022-12-11T03:09:36;23.23;;;14.07;;
31298;SDS011;17927;52.350;13.402;2022-12-11T03:12:02;22.60;;;13.90;;
31298;SDS011;17927;52.350;13.402;2022-12-11T03:14:27;22.00;;;13.07;;
31298;SDS011;17927;52.350;13.402;2022-12-11T03:17:02;20.20;;;13.10;;
31298;SDS011;17927;52.350;13.402;2022-12-11T03:25:00;22.58;;;13.93;;
31298;SDS011;17927;52.350;13.402;2022-12-11T03:27:40;21.98;;;13.63;;
31298;SDS011;17927;52.350;13.402;2022-12-11T03:30:16;24.52;;;12.93;;
31298;SDS011;17927;52.350;13.402;2022-12-11T03:32:50;24.98;;;14.55;;
31298;SDS011;17927;52.350;13.402;2022-12-11T03:35:40;23.05;;;13.57;;
31298;SDS011;17927;52.350;13.402;2022-12-11T03:38:22;21.77;;;13.55;;
31298;SDS011;17927;52.350;13.402;2022-12-11T03:40:53;21.42;;;14.57;;
31298;SDS011;17927;52.350;13.402;2022-12-11T03:43:20;19.35;;;13.27;;
31298;SDS011;17927;52.350;13.402;2022-12-11T03:45:46;23.42;;;13.52;;
31298;SDS011;17927;52.350;13.402;2022-12-11T03:48:14;25.45;;;13.57;;
31298;SDS011;17927;52.350;13.402;2022-12-11T03:50:42;20.35;;;13.20;;
31298;SDS011;17927;52.350;13.402;2022-12-11T03:53:10;20.08;;;13.95;;
31298;SDS011;17927;52.350;13.402;2022-12-11T03:55:36;19.88;;;13.23;;
31298;SDS011;17927;52.350;13.402;2022-12-11T03:58:03;18.77;;;13.35;;
31298;SDS011;17927;52.350;13.402;2022-12-11T04:00:29;23.85;;;14.70;;
31298;SDS011;17927;52.350;13.402;2022-12-11T04:02:54;23.00;;;13.63;;
31298;SDS011;17927;52.350;13.402;2022-12-11T04:05:45;22.25;;;13.32;;
31298;SDS011;17927;52.350;13.402;2022-12-11T04:08:12;19.50;;;12.68;;
31298;SDS011;17927;52.350;13.402;2022-12-11T04:10:38;20.55;;;13.38;;
31298;SDS011;17927;52.350;13.402;2022-12-11T04:13:04;20.17;;;13.45;;
31298;SDS011;17927;52.350;13.402;2022-12-11T04:15:29;20.27;;;13.50;;
31298;SDS011;17927;52.350;13.402;2022-12-11T04:17:54;20.80;;;13.70;;
31298;SDS011;17927;52.350;13.402;2022-12-11T04:20:38;20.10;;;13.30;;
31298;SDS011;17927;52.350;13.402;2022-12-11T04:23:23;20.83;;;13.35;;
31298;SDS011;17927;52.350;13.402;2022-12-11T04:28:34;23.38;;;14.30;;
31298;SDS011;17927;52.350;13.402;2022-12-11T04:30:59;21.80;;;13.65;;
31298;SDS011;17927;52.350;13.402;2022-12-11T04:33:25;21.38;;;12.95;;
31298;SDS011;17927;52.350;13.402;2022-12-11T04:35:50;20.58;;;13.60;;
31298;SDS011;17927;52.350;13.402;2022-12-11T04:38:15;21.98;;;14.43;;
31298;SDS011;17927;52.350;13.402;2022-12-11T04:40:41;23.38;;;13.95;;
31298;SDS011;17927;52.350;13.402;2022-12-11T04:43:06;19.45;;;13.60;;
31298;SDS011;17927;52.350;13.402;2022-12-11T04:45:31;22.60;;;13.63;;
31298;SDS011;17927;52.350;13.402;2022-12-11T04:47:56;17.65;;;12.93;;
31298;SDS011;17927;52.350;13.402;2022-12-11T04:50:22;23.10;;;13.25;;
31298;SDS011;17927;52.350;13.402;2022-12-11T04:52:47;21.90;;;14.40;;
31298;SDS011;17927;52.350;13.402;2022-12-11T04:55:12;18.90;;;14.18;;
31298;SDS011;17927;52.350;13.402;2022-12-11T04:57:38;18.80;;;12.23;;
31298;SDS011;17927;52.350;13.402;2022-12-11T05:00:04;22.13;;;13.90;;
31298;SDS011;17927;52.350;13.402;2022-12-11T05:02:35;26.35;;;13.68;;
31298;SDS011;17927;52.350;13.402;2022-12-11T05:05:03;20.25;;;13.63;;
31298;SDS011;17927;52.350;13.402;2022-12-11T05:07:29;20.08;;;12.63;;
31298;SDS011;17927;52.350;13.402;2022-12-11T05:09:54;21.38;;;12.57;;
31298;SDS011;17927;52.350;13.402;2022-12-11T05:12:20;24.25;;;14.80;;
31298;SDS011;17927;52.350;13.402;2022-12-11T05:14:45;19.35;;;12.60;;
31298;SDS011;17927;52.350;13.402;2022-12-11T05:17:10;19.42;;;13.70;;
31298;SDS011;17927;52.350;13.402;2022-12-11T05:19:35;18.85;;;12.32;;
31298;SDS011;17927;52.350;13.402;2022-12-11T05:22:00;22.08;;;14.38;;
31298;SDS011;17927;52.350;13.402;2022-12-11T05:24:26;24.60;;;15.60;;
31298;SDS011;17927;52.350;13.402;2022-12-11T05:26:51;24.23;;;14.73;;
31298;SDS011;17927;52.350;13.402;2022-12-11T05:29:16;20.77;;;14.27;;
31298;SDS011;17927;52.350;13.402;2022-12-11T05:31:41;25.65;;;16.20;;
31298;SDS011;17927;52.350;13.402;2022-12-11T05:34:07;20.20;;;13.75;;
31298;SDS011;17927;52.350;13.402;2022-12-11T05:36:32;19.83;;;13.52;;
31298;SDS011;17927;52.350;13.402;2022-12-11T05:38:58;20.10;;;12.90;;
31298;SDS011;17927;52.350;13.402;2022-12-11T05:41:25;18.23;;;12.70;;
31298;SDS011;17927;52.350;13.402;2022-12-11T05:43:52;20.75;;;13.90;;
31298;SDS011;17927;52.350;13.402;2022-12-11T05:46:18;21.00;;;13.65;;
31298;SDS011;17927;52.350;13.402;2022-12-11T05:48:55;20.88;;;13.15;;
31298;SDS011;17927;52.350;13.402;2022-12-11T05:51:22;21.88;;;13.57;;
31298;SDS011;17927;52.350;13.402;2022-12-11T05:53:48;22.15;;;13.30;;
31298;SDS011;17927;52.350;13.402;2022-12-11T05:56:15;20.73;;;12.85;;
31298;SDS011;17927;52.350;13.402;2022-12-11T05:58:45;19.52;;;12.90;;
31298;SDS011;17927;52.350;13.402;2022-12-11T06:01:12;25.35;;;14.02;;
31298;SDS011;17927;52.350;13.402;2022-12-11T06:03:40;21.08;;;13.10;;
31298;SDS011;17927;52.350;13.402;2022-12-11T06:06:05;20.60;;;13.68;;
31298;SDS011;17927;52.350;13.402;2022-12-11T06:08:31;17.58;;;11.85;;
31298;SDS011;17927;52.350;13.402;2022-12-11T06:10:58;20.33;;;13.43;;
31298;SDS011;17927;52.350;13.402;2022-12-11T06:13:23;19.48;;;12.98;;
31298;SDS011;17927;52.350;13.402;2022-12-11T06:15:49;23.48;;;14.35;;
31298;SDS011;17927;52.350;13.402;2022-12-11T06:18:14;19.95;;;12.88;;
31298;SDS011;17927;52.350;13.402;2022-12-11T06:20:39;23.88;;;13.05;;
31298;SDS011;17927;52.350;13.402;2022-12-11T06:23:05;18.00;;;12.02;;
31298;SDS011;17927;52.350;13.402;2022-12-11T06:25:30;20.00;;;13.15;;
31298;SDS011;17927;52.350;13.402;2022-12-11T06:27:55;23.58;;;14.68;;
31298;SDS011;17927;52.350;13.402;2022-12-11T06:30:21;19.92;;;13.95;;
31298;SDS011;17927;52.350;13.402;2022-12-11T06:32:46;24.20;;;14.80;;
31298;SDS011;17927;52.350;13.402;2022-12-11T06:35:12;23.17;;;13.88;;
31298;SDS011;17927;52.350;13.402;2022-12-11T06:37:37;25.38;;;14.65;;
31298;SDS011;17927;52.350;13.402;2022-12-11T06:40:04;23.80;;;15.43;;
31298;SDS011;17927;52.350;13.402;2022-12-11T06:42:31;27.67;;;14.77;;
31298;SDS011;17927;52.350;13.402;2022-12-11T06:44:56;29.88;;;15.38;;
31298;SDS011;17927;52.350;13.402;2022-12-11T06:47:23;24.15;;;14.80;;
31298;SDS011;17927;52.350;13.402;2022-12-11T06:49:52;21.58;;;13.82;;
31298;SDS011;17927;52.350;13.402;2022-12-11T06:52:18;25.52;;;14.75;;
31298;SDS011;17927;52.350;13.402;2022-12-11T06:54:43;25.77;;;14.32;;
31298;SDS011;17927;52.350;13.402;2022-12-11T06:57:08;24.00;;;14.93;;
31298;SDS011;17927;52.350;13.402;2022-12-11T06:59:34;22.27;;;14.98;;
31298;SDS011;17927;52.350;13.402;2022-12-11T07:01:59;24.55;;;15.55;;
31298;SDS011;17927;52.350;13.402;2022-12-11T07:04:24;24.33;;;14.48;;
31298;SDS011;17927;52.350;13.402;2022-12-11T07:06:51;23.20;;;13.77;;
31298;SDS011;17927;52.350;13.402;2022-12-11T07:09:17;25.15;;;14.80;;
31298;SDS011;17927;52.350;13.402;2022-12-11T07:11:42;26.35;;;14.05;;
31298;SDS011;17927;52.350;13.402;2022-12-11T07:14:07;23.38;;;14.07;;
31298;SDS011;17927;52.350;13.402;2022-12-11T07:16:33;23.92;;;14.85;;
31298;SDS011;17927;52.350;13.402;2022-12-11T07:18:58;27.00;;;14.75;;
31298;SDS011;17927;52.350;13.402;2022-12-11T07:21:24;22.15;;;13.85;;
31298;SDS011;17927;52.350;13.402;2022-12-11T07:23:49;23.85;;;14.50;;
31298;SDS011;17927;52.350;13.402;2022-12-11T07:26:15;20.10;;;12.68;;
31298;SDS011;17927;52.350;13.402;2022-12-11T07:28:42;23.45;;;13.50;;
31298;SDS011;17927;52.350;13.402;2022-12-11T07:31:09;21.17;;;12.25;;
31298;SDS011;17927;52.350;13.402;2022-12-11T07:33:45;19.33;;;11.52;;
31298;SDS011;17927;52.350;13.402;2022-12-11T07:36:11;16.25;;;10.75;;
31298;SDS011;17927;52.350;13.402;2022-12-11T07:38:38;14.88;;;10.52;;
31298;SDS011;17927;52.350;13.402;2022-12-11T07:41:05;16.90;;;10.85;;
31298;SDS011;17927;52.350;13.402;2022-12-11T07:43:32;15.82;;;10.52;;
31298;SDS011;17927;52.350;13.402;2022-12-11T07:46:02;16.35;;;10.30;;
31298;SDS011;17927;52.350;13.402;2022-12-11T07:48:28;20.30;;;10.75;;
31298;SDS011;17927;52.350;13.402;2022-12-11T07:50:54;15.82;;;10.07;;
31298;SDS011;17927;52.350;13.402;2022-12-11T07:53:19;16.08;;;10.80;;
31298;SDS011;17927;52.350;13.402;2022-12-11T07:55:45;17.83;;;10.50;;
31298;SDS011;17927;52.350;13.402;2022-12-11T07:58:10;17.30;;;10.38;;
31298;SDS011;17927;52.350;13.402;2022-12-11T08:00:35;18.02;;;11.13;;
31298;SDS011;17927;52.350;13.402;2022-12-11T08:03:00;17.40;;;11.00;;
31298;SDS011;17927;52.350;13.402;2022-12-11T08:05:25;16.48;;;10.70;;
31298;SDS011;17927;52.350;13.402;2022-12-11T08:07:51;16.63;;;10.57;;
31298;SDS011;17927;52.350;13.402;2022-12-11T08:10:16;14.98;;;9.75;;
31298;SDS011;17927;52.350;13.402;2022-12-11T08:12:41;16.73;;;10.45;;
31298;SDS011;17927;52.350;13.402;2022-12-11T08:15:07;15.65;;;10.30;;
31298;SDS011;17927;52.350;13.402;2022-12-11T08:17:33;17.30;;;10.48;;
31298;SDS011;17927;52.350;13.402;2022-12-11T08:19:58;17.65;;;10.82;;
31298;SDS011;17927;52.350;13.402;2022-12-11T08:22:26;17.02;;;10.98;;
31298;SDS011;17927;52.350;13.402;2022-12-11T08:24:51;14.90;;;10.38;;
31298;SDS011;17927;52.350;13.402;2022-12-11T08:27:16;13.30;;;10.63;;
31298;SDS011;17927;52.350;13.402;2022-12-11T08:29:42;19.00;;;11.07;;
31298;SDS011;17927;52.350;13.402;2022-12-11T08:32:07;18.88;;;10.75;;
31298;SDS011;17927;52.350;13.402;2022-12-11T08:34:33;17.55;;;10.38;;
31298;SDS011;17927;52.350;13.402;2022-12-11T08:36:58;18.48;;;11.43;;
31298;SDS011;17927;52.350;13.402;2022-12-11T08:39:23;15.23;;;10.55;;
31298;SDS011;17927;52.350;13.402;2022-12-11T08:41:49;15.77;;;10.15;;
31298;SDS011;17927;52.350;13.402;2022-12-11T08:44:14;19.33;;;10.52;;
31298;SDS011;17927;52.350;13.402;2022-12-11T08:46:39;17.30;;;10.65;;
31298;SDS011;17927;52.350;13.402;2022-12-11T08:49:05;17.52;;;10.45;;
31298;SDS011;17927;52.350;13.402;2022-12-11T08:51:30;16.77;;;10.27;;
31298;SDS011;17927;52.350;13.402;2022-12-11T08:53:56;19.67;;;11.00;;
31298;SDS011;17927;52.350;13.402;2022-12-11T08:56:23;16.92;;;10.98;;
31298;SDS011;17927;52.350;13.402;2022-12-11T08:58:49;18.48;;;11.30;;
31298;SDS011;17927;52.350;13.402;2022-12-11T09:01:16;16.63;;;11.35;;
31298;SDS011;17927;52.350;13.402;2022-12-11T09:03:45;16.58;;;10.60;;
31298;SDS011;17927;52.350;13.402;2022-12-11T09:06:11;16.63;;;10.65;;
31298;SDS011;17927;52.350;13.402;2022-12-11T09:08:39;17.42;;;10.88;;
31298;SDS011;17927;52.350;13.402;2022-12-11T09:11:06;19.70;;;10.63;;
31298;SDS011;17927;52.350;13.402;2022-12-11T09:13:33;17.08;;;11.13;;
31298;SDS011;17927;52.350;13.402;2022-12-11T09:15:58;15.57;;;10.38;;
31298;SDS011;17927;52.350;13.402;2022-12-11T09:18:24;17.40;;;10.15;;
31298;SDS011;17927;52.350;13.402;2022-12-11T09:20:56;16.00;;;10.85;;
31298;SDS011;17927;52.350;13.402;2022-12-11T09:23:26;17.48;;;10.65;;
31298;SDS011;17927;52.350;13.402;2022-12-11T09:25:51;16.23;;;11.30;;
31298;SDS011;17927;52.350;13.402;2022-12-11T09:28:16;19.52;;;11.80;;
31298;SDS011;17927;52.350;13.402;2022-12-11T09:30:41;15.70;;;9.60;;
31298;SDS011;17927;52.350;13.402;2022-12-11T09:33:07;19.13;;;11.68;;
31298;SDS011;17927;52.350;13.402;2022-12-11T09:35:32;19.17;;;11.43;;
31298;SDS011;17927;52.350;13.402;2022-12-11T09:37:57;15.98;;;11.20;;
31298;SDS011;17927;52.350;13.402;2022-12-11T09:40:22;17.35;;;10.70;;
31298;SDS011;17927;52.350;13.402;2022-12-11T09:42:59;17.10;;;10.98;;
31298;SDS011;17927;52.350;13.402;2022-12-11T09:45:30;16.88;;;10.57;;
31298;SDS011;17927;52.350;13.402;2022-12-11T09:47:55;18.50;;;11.63;;
31298;SDS011;17927;52.350;13.402;2022-12-11T09:50:23;18.58;;;10.80;;
31298;SDS011;17927;52.350;13.402;2022-12-11T09:53:02;18.27;;;11.50;;
31298;SDS011;17927;52.350;13.402;2022-12-11T09:55:48;16.45;;;10.45;;
31298;SDS011;17927;52.350;13.402;2022-12-11T09:58:37;19.67;;;11.07;;
31298;SDS011;17927;52.350;13.402;2022-12-11T10:01:14;16.02;;;9.82;;
31298;SDS011;17927;52.350;13.402;2022-12-11T10:09:48;17.38;;;11.63;;
31298;SDS011;17927;52.350;13.402;2022-12-11T10:17:53;16.80;;;10.95;;
31298;SDS011;17927;52.350;13.402;2022-12-11T10:20:25;19.45;;;11.30;;
31298;SDS011;17927;52.350;13.402;2022-12-11T10:22:56;19.83;;;11.07;;
31298;SDS011;17927;52.350;13.402;2022-12-11T10:25:29;16.48;;;11.15;;
31298;SDS011;17927;52.350;13.402;2022-12-11T10:27:56;17.80;;;11.57;;
31298;SDS011;17927;52.350;13.402;2022-12-11T10:30:23;15.55;;;10.23;;
31298;SDS011;17927;52.350;13.402;2022-12-11T10:35:52;17.95;;;11.05;;
31298;SDS011;17927;52.350;13.402;2022-12-11T10:38:27;15.93;;;10.82;;
31298;SDS011;17927;52.350;13.402;2022-12-11T10:40:56;16.48;;;10.60;;
31298;SDS011;17927;52.350;13.402;2022-12-11T10:43:39;17.02;;;11.90;;
31298;SDS011;17927;52.350;13.402;2022-12-11T10:46:13;18.67;;;11.40;;
31298;SDS011;17927;52.350;13.402;2022-12-11T10:48:49;20.70;;;11.10;;
31298;SDS011;17927;52.350;13.402;2022-12-11T10:51:21;19.83;;;11.43;;
31298;SDS011;17927;52.350;13.402;2022-12-11T10:53:52;18.77;;;11.70;;
31298;SDS011;17927;52.350;13.402;2022-12-11T10:56:27;16.08;;;11.10;;
31298;SDS011;17927;52.350;13.402;2022-12-11T10:58:55;17.65;;;11.82;;
31298;SDS011;17927;52.350;13.402;2022-12-11T11:01:22;16.98;;;11.32;;
31298;SDS011;17927;52.350;13.402;2022-12-11T11:03:53;18.38;;;11.85;;
31298;SDS011;17927;52.350;13.402;2022-12-11T11:06:22;15.80;;;10.60;;
31298;SDS011;17927;52.350;13.402;2022-12-11T11:08:49;19.27;;;11.93;;
31298;SDS011;17927;52.350;13.402;2022-12-11T11:11:19;21.75;;;11.65;;
31298;SDS011;17927;52.350;13.402;2022-12-11T11:13:51;17.65;;;11.43;;
31298;SDS011;17927;52.350;13.402;2022-12-11T11:16:27;17.05;;;10.05;;
31298;SDS011;17927;52.350;13.402;2022-12-11T11:18:53;19.25;;;11.55;;
31298;SDS011;17927;52.350;13.402;2022-12-11T11:21:21;19.75;;;12.63;;
31298;SDS011;17927;52.350;13.402;2022-12-11T11:23:48;20.38;;;12.48;;
31298;SDS011;17927;52.350;13.402;2022-12-11T11:26:14;18.38;;;11.60;;
31298;SDS011;17927;52.350;13.402;2022-12-11T11:28:51;18.20;;;10.38;;
31298;SDS011;17927;52.350;13.402;2022-12-11T11:31:19;15.93;;;10.68;;
31298;SDS011;17927;52.350;13.402;2022-12-11T11:33:56;18.63;;;10.45;;
31298;SDS011;17927;52.350;13.402;2022-12-11T11:36:25;20.70;;;10.95;;
31298;SDS011;17927;52.350;13.402;2022-12-11T11:44:14;16.13;;;10.35;;
31298;SDS011;17927;52.350;13.402;2022-12-11T11:47:26;14.98;;;10.38;;
31298;SDS011;17927;52.350;13.402;2022-12-11T11:49:59;14.40;;;10.13;;
31298;SDS011;17927;52.350;13.402;2022-12-11T11:52:36;16.23;;;10.98;;
31298;SDS011;17927;52.350;13.402;2022-12-11T11:55:13;14.85;;;11.20;;
31298;SDS011;17927;52.350;13.402;2022-12-11T11:57:42;15.38;;;10.00;;
31298;SDS011;17927;52.350;13.402;2022-12-11T12:02:46;17.15;;;10.55;;
31298;SDS011;17927;52.350;13.402;2022-12-11T12:05:14;18.35;;;10.75;;
31298;SDS011;17927;52.350;13.402;2022-12-11T12:07:51;15.18;;;10.25;;
31298;SDS011;17927;52.350;13.402;2022-12-11T12:10:39;20.50;;;10.55;;
31298;SDS011;17927;52.350;13.402;2022-12-11T12:13:15;18.95;;;10.48;;
31298;SDS011;17927;52.350;13.402;2022-12-11T12:15:54;16.52;;;11.00;;
31298;SDS011;17927;52.350;13.402;2022-12-11T12:20:54;15.30;;;10.60;;
31298;SDS011;17927;52.350;13.402;2022-12-11T12:23:35;17.40;;;10.55;;
31298;SDS011;17927;52.350;13.402;2022-12-11T12:34:33;15.43;;;10.55;;
31298;SDS011;17927;52.350;13.402;2022-12-11T12:37:15;18.67;;;10.75;;
31298;SDS011;17927;52.350;13.402;2022-12-11T12:43:05;19.75;;;10.45;;
31298;SDS011;17927;52.350;13.402;2022-12-11T12:45:58;17.05;;;10.55;;
31298;SDS011;17927;52.350;13.402;2022-12-11T12:48:31;18.80;;;10.55;;
31298;SDS011;17927;52.350;13.402;2022-12-11T12:50:56;19.02;;;10.70;;
31298;SDS011;17927;52.350;13.402;2022-12-11T12:53:23;16.20;;;10.60;;
31298;SDS011;17927;52.350;13.402;2022-12-11T12:55:52;16.88;;;10.75;;
31298;SDS011;17927;52.350;13.402;2022-12-11T13:01:05;20.53;;;10.73;;
31298;SDS011;17927;52.350;13.402;2022-12-11T13:06:38;20.57;;;11.23;;
31298;SDS011;17927;52.350;13.402;2022-12-11T13:09:24;14.98;;;10.60;;
31298;SDS011;17927;52.350;13.402;2022-12-11T13:11:53;16.55;;;10.60;;
31298;SDS011;17927;52.350;13.402;2022-12-11T13:14:31;13.80;;;10.30;;
31298;SDS011;17927;52.350;13.402;2022-12-11T13:17:20;15.18;;;10.10;;
31298;SDS011;17927;52.350;13.402;2022-12-11T13:19:50;16.55;;;10.05;;
31298;SDS011;17927;52.350;13.402;2022-12-11T13:22:49;14.38;;;10.00;;
31298;SDS011;17927;52.350;13.402;2022-12-11T13:25:22;16.08;;;10.80;;
31298;SDS011;17927;52.350;13.402;2022-12-11T13:28:17;20.15;;;11.23;;
31298;SDS011;17927;52.350;13.402;2022-12-11T13:30:55;18.80;;;11.00;;
31298;SDS011;17927;52.350;13.402;2022-12-11T13:33:21;17.63;;;10.55;;
31298;SDS011;17927;52.350;13.402;2022-12-11T13:35:47;16.60;;;10.02;;
31298;SDS011;17927;52.350;13.402;2022-12-11T13:38:16;18.27;;;10.57;;
31298;SDS011;17927;52.350;13.402;2022-12-11T13:40:45;16.35;;;10.52;;
31298;SDS011;17927;52.350;13.402;2022-12-11T13:43:17;18.73;;;10.68;;
31298;SDS011;17927;52.350;13.402;2022-12-11T13:45:49;16.58;;;10.45;;
31298;SDS011;17927;52.350;13.402;2022-12-11T13:48:20;16.85;;;10.73;;
31298;SDS011;17927;52.350;13.402;2022-12-11T13:50:49;20.40;;;11.60;;
31298;SDS011;17927;52.350;13.402;2022-12-11T13:53:17;15.90;;;10.70;;
31298;SDS011;17927;52.350;13.402;2022-12-11T13:55:43;16.52;;;10.57;;
31298;SDS011;17927;52.350;13.402;2022-12-11T13:58:15;18.23;;;10.90;;
31298;SDS011;17927;52.350;13.402;2022-12-11T14:00:42;16.42;;;10.40;;
31298;SDS011;17927;52.350;13.402;2022-12-11T14:03:21;21.52;;;11.10;;
31298;SDS011;17927;52.350;13.402;2022-12-11T14:05:46;14.98;;;10.07;;
31298;SDS011;17927;52.350;13.402;2022-12-11T14:08:16;19.27;;;11.45;;
31298;SDS011;17927;52.350;13.402;2022-12-11T14:10:46;14.57;;;10.02;;
31298;SDS011;17927;52.350;13.402;2022-12-11T14:13:24;17.73;;;10.32;;
31298;SDS011;17927;52.350;13.402;2022-12-11T14:15:53;18.23;;;11.02;;
31298;SDS011;17927;52.350;13.402;2022-12-11T14:18:20;18.70;;;11.02;;
31298;SDS011;17927;52.350;13.402;2022-12-11T14:20:54;18.60;;;11.65;;
31298;SDS011;17927;52.350;13.402;2022-12-11T14:23:22;19.77;;;11.07;;
31298;SDS011;17927;52.350;13.402;2022-12-11T14:25:57;16.23;;;10.80;;
31298;SDS011;17927;52.350;13.402;2022-12-11T14:28:25;20.35;;;10.85;;
31298;SDS011;17927;52.350;13.402;2022-12-11T14:30:52;18.23;;;11.32;;
31298;SDS011;17927;52.350;13.402;2022-12-11T14:33:21;18.98;;;10.70;;
31298;SDS011;17927;52.350;13.402;2022-12-11T14:35:49;15.75;;;11.43;;
31298;SDS011;17927;52.350;13.402;2022-12-11T14:38:29;15.20;;;9.85;;
31298;SDS011;17927;52.350;13.402;2022-12-11T14:41:00;18.73;;;10.80;;
31298;SDS011;17927;52.350;13.402;2022-12-11T14:43:34;18.17;;;10.57;;
31298;SDS011;17927;52.350;13.402;2022-12-11T14:46:06;16.77;;;10.80;;
31298;SDS011;17927;52.350;13.402;2022-12-11T14:48:35;16.25;;;10.52;;
31298;SDS011;17927;52.350;13.402;2022-12-11T14:51:09;19.30;;;11.35;;
31298;SDS011;17927;52.350;13.402;2022-12-11T14:53:40;20.75;;;11.68;;
31298;SDS011;17927;52.350;13.402;2022-12-11T14:56:15;16.92;;;10.73;;
31298;SDS011;17927;52.350;13.402;2022-12-11T14:58:50;21.88;;;11.32;;
31298;SDS011;17927;52.350;13.402;2022-12-11T15:01:20;17.48;;;12.07;;
31298;SDS011;17927;52.350;13.402;2022-12-11T15:03:47;19.08;;;11.13;;
31298;SDS011;17927;52.350;13.402;2022-12-11T15:06:32;18.02;;;11.70;;
31298;SDS011;17927;52.350;13.402;2022-12-11T15:09:59;17.27;;;11.02;;
31298;SDS011;17927;52.350;13.402;2022-12-11T15:12:09;19.25;;;11.13;;
31298;SDS011;17927;52.350;13.402;2022-12-11T15:14:40;16.55;;;10.25;;
31298;SDS011;17927;52.350;13.402;2022-12-11T15:17:11;20.27;;;11.52;;
31298;SDS011;17927;52.350;13.402;2022-12-11T15:19:38;19.42;;;11.50;;
31298;SDS011;17927;52.350;13.402;2022-12-11T15:22:05;18.55;;;11.40;;
31298;SDS011;17927;52.350;13.402;2022-12-11T15:24:36;19.88;;;12.02;;
31298;SDS011;17927;52.350;13.402;2022-12-11T15:27:04;23.17;;;12.02;;